Time;durP1;ratioP1;P1;durP2;ratioP2;P2;SDS_P1;SDS_P2;PMS_P1;PMS_P2;Temp;Humidity;BMP_temperature;BMP_pressure;BME280_temperature;BME280_humidity;BME280_pressure;Samples;Min_cycle;Max_cycle;Signal;HPM_P1;HPM_P2
2021/11/03 00:01:40;;;;;;;19.57;13.30;;;;;;;11.25;85.12;99549.94;5078283;28;20256;-72
2021/11/03 00:04:08;;;;;;;21.17;13.67;;;;;;;11.39;84.68;99552.41;5078138;28;20668;-72
2021/11/03 00:06:33;;;;;;;18.37;13.43;;;;;;;11.27;84.38;99553.34;5061640;28;20261;-71
2021/11/03 00:09:00;;;;;;;20.93;15.07;;;;;;;11.21;86.01;99559.16;5096511;28;20626;-71
2021/11/03 00:11:26;;;;;;;18.23;14.53;;;;;;;11.10;85.81;99559.94;5081317;28;20178;-72
2021/11/03 00:13:51;;;;;;;21.40;15.37;;;;;;;10.71;87.75;99558.44;5085470;28;20276;-72
2021/11/03 00:16:16;;;;;;;18.53;14.60;;;;;;;10.80;87.82;99565.78;5068015;28;20205;-72
2021/11/03 00:18:42;;;;;;;20.60;14.90;;;;;;;10.70;87.62;99559.38;5098192;28;20212;-71
2021/11/03 00:21:07;;;;;;;18.97;14.27;;;;;;;10.94;87.16;99570.94;5077646;28;20173;-74
2021/11/03 00:23:33;;;;;;;21.97;15.53;;;;;;;10.63;88.10;99574.16;5077858;28;20176;-73
2021/11/03 00:25:59;;;;;;;20.60;14.50;;;;;;;11.04;87.42;99564.91;5078186;28;20177;-73
2021/11/03 00:28:24;;;;;;;21.37;13.73;;;;;;;10.77;88.31;99565.97;5077734;28;20196;-71
2021/11/03 00:30:53;;;;;;;17.23;13.80;;;;;;;10.86;87.36;99567.13;5060900;28;20676;-72
2021/11/03 00:33:19;;;;;;;21.20;14.53;;;;;;;10.69;88.09;99570.19;5077447;28;20200;-72
2021/11/03 00:35:44;;;;;;;18.30;14.30;;;;;;;10.60;88.12;99566.38;5077927;28;20171;-71
2021/11/03 00:38:10;;;;;;;26.03;14.97;;;;;;;10.25;89.51;99560.91;5076707;28;20557;-72
2021/11/03 00:40:35;;;;;;;20.00;15.07;;;;;;;10.09;90.72;99563.81;5077874;28;20172;-73
2021/11/03 00:43:01;;;;;;;21.83;14.87;;;;;;;10.61;88.22;99570.75;5095998;28;20259;-70
2021/11/03 00:45:26;;;;;;;17.33;13.77;;;;;;;10.56;88.67;99565.75;5077282;28;20265;-72
2021/11/03 00:47:52;;;;;;;18.73;15.23;;;;;;;10.18;89.21;99554.28;5095139;28;20204;-71
2021/11/03 00:50:19;;;;;;;19.77;14.80;;;;;;;10.29;89.75;99563.25;5077341;28;20205;-70
2021/11/03 00:52:44;;;;;;;19.73;15.00;;;;;;;10.27;89.69;99559.84;5077211;28;20199;-71
2021/11/03 00:55:10;;;;;;;18.80;14.57;;;;;;;10.62;87.88;99569.78;5095430;28;20174;-70
2021/11/03 00:57:35;;;;;;;22.30;14.97;;;;;;;10.42;88.25;99557.91;5095623;28;20196;-72
2021/11/03 01:00:00;;;;;;;18.63;15.50;;;;;;;10.15;89.52;99554.50;5077985;28;20175;-73
2021/11/03 01:02:26;;;;;;;23.97;15.67;;;;;;;10.13;89.80;99556.44;5095744;28;20173;-72
2021/11/03 01:04:51;;;;;;;23.67;15.73;;;;;;;10.39;88.74;99563.44;5077661;28;20170;-72
2021/11/03 01:07:17;;;;;;;20.57;15.97;;;;;;;10.51;88.03;99561.72;5080133;28;20200;-73
2021/11/03 01:09:42;;;;;;;22.80;15.47;;;;;;;10.67;86.73;99564.09;5078535;28;20613;-73
2021/11/03 01:12:08;;;;;;;21.50;15.67;;;;;;;10.70;86.92;99553.19;5076762;28;20669;-71
2021/11/03 01:14:35;;;;;;;20.93;15.70;;;;;;;10.41;87.51;99552.69;5076756;28;20176;-73
2021/11/03 01:17:00;;;;;;;20.20;15.30;;;;;;;10.55;87.16;99550.72;5076555;28;20196;-72
2021/11/03 01:19:25;;;;;;;21.17;16.77;;;;;;;10.31;87.67;99550.66;5076767;28;20174;-73
2021/11/03 01:21:51;;;;;;;25.33;17.47;;;;;;;9.89;90.72;99557.19;5077107;28;20166;-72
2021/11/03 01:24:16;;;;;;;25.83;18.33;;;;;;;10.10;90.92;99560.19;5094704;28;20195;-72
2021/11/03 01:26:42;;;;;;;28.43;17.33;;;;;;;10.03;89.45;99551.75;5076326;28;20347;-72
2021/11/03 01:29:07;;;;;;;24.73;17.53;;;;;;;10.01;91.48;99563.47;5076261;28;20166;-70
2021/11/03 01:31:33;;;;;;;25.10;17.47;;;;;;;10.25;89.76;99556.44;5094348;28;20167;-71
2021/11/03 01:33:59;;;;;;;22.00;16.47;;;;;;;10.47;88.31;99560.25;5076247;28;20189;-71
2021/11/03 01:36:25;;;;;;;21.53;16.03;;;;;;;10.55;88.32;99564.03;5059575;28;20190;-71
2021/11/03 01:38:50;;;;;;;20.23;15.23;;;;;;;10.63;86.85;99563.47;5076185;28;20174;-72
2021/11/03 01:41:16;;;;;;;22.07;15.33;;;;;;;10.49;87.92;99559.16;5076652;28;20616;-73
2021/11/03 01:44:09;;;;;;;22.87;15.57;;;;;;;10.61;86.96;99563.59;5076022;28;20260;-73
2021/11/03 01:46:35;;;;;;;21.40;15.40;;;;;;;10.51;87.21;99564.38;5058102;28;20305;-74
2021/11/03 01:49:05;;;;;;;19.80;15.13;;;;;;;10.62;86.65;99562.63;5075356;28;20262;-73
2021/11/03 01:51:46;;;;;;;23.20;15.50;;;;;;;10.56;87.28;99564.91;5059644;28;20166;-73
2021/11/03 01:54:14;;;;;;;22.17;16.63;;;;;;;10.79;86.55;99560.56;5076381;28;20165;-73
2021/11/03 01:56:40;;;;;;;20.23;14.87;;;;;;;10.61;87.02;99562.75;5075637;28;20197;-73
2021/11/03 01:59:16;;;;;;;24.20;15.93;;;;;;;10.72;86.36;99554.78;5075920;28;20174;-73
2021/11/03 02:01:42;;;;;;;20.53;14.40;;;;;;;10.17;89.17;99558.78;5058960;28;20530;-73
2021/11/03 02:04:07;;;;;;;21.10;15.10;;;;;;;10.55;87.04;99563.19;5075526;28;20181;-72
2021/11/03 02:06:32;;;;;;;23.17;16.07;;;;;;;10.15;88.79;99560.69;5075821;28;20197;-73
2021/11/03 02:08:58;;;;;;;21.30;15.00;;;;;;;10.22;88.72;99554.00;5075887;28;20200;-71
2021/11/03 02:11:26;;;;;;;22.83;15.77;;;;;;;10.40;88.37;99561.63;5094183;28;20706;-69
2021/11/03 02:13:51;;;;;;;19.50;14.57;;;;;;;10.71;86.57;99547.75;5058740;28;20222;-70
2021/11/03 02:16:17;;;;;;;22.73;15.10;;;;;;;10.75;85.49;99551.91;5093508;28;20198;-69
2021/11/03 02:18:43;;;;;;;19.87;15.17;;;;;;;10.06;88.58;99550.69;5075526;28;20175;-69
2021/11/03 02:21:10;;;;;;;21.57;16.13;;;;;;;9.73;90.74;99553.91;5075376;28;20661;-69
2021/11/03 02:23:43;;;;;;;25.97;16.33;;;;;;;9.93;90.41;99571.16;5075376;28;20178;-69
2021/11/03 02:26:12;;;;;;;20.33;15.80;;;;;;;10.26;88.75;99568.81;5075389;28;20247;-69
2021/11/03 02:28:40;;;;;;;26.97;17.40;;;;;;;9.72;90.79;99562.88;5075233;28;20264;-70
2021/11/03 02:31:06;;;;;;;26.07;16.47;;;;;;;10.12;89.11;99555.59;5075373;28;20542;-69
2021/11/03 02:33:32;;;;;;;26.97;17.13;;;;;;;10.12;89.01;99555.59;5075413;28;20189;-69
2021/11/03 02:36:04;;;;;;;22.63;15.43;;;;;;;10.46;88.39;99562.06;5093634;28;20166;-70
2021/11/03 02:38:35;;;;;;;24.00;16.37;;;;;;;9.73;90.98;99553.91;5075405;28;20157;-69
2021/11/03 02:41:16;;;;;;;26.47;17.43;;;;;;;9.85;91.45;99555.72;5093998;28;20630;-69
2021/11/03 02:43:51;;;;;;;25.20;17.17;;;;;;;10.03;91.66;99559.75;5075450;28;20184;-70
2021/11/03 02:46:17;;;;;;;26.37;17.77;;;;;;;10.14;89.95;99559.00;5093323;28;20543;-70
2021/11/03 02:48:43;;;;;;;25.33;16.80;;;;;;;10.07;89.52;99549.72;5075214;28;20177;-69
2021/11/03 02:51:10;;;;;;;22.47;16.53;;;;;;;9.98;89.95;99551.22;5076223;28;20166;-70
2021/11/03 02:53:44;;;;;;;23.40;17.07;;;;;;;9.91;91.49;99549.09;5093213;28;20195;-70
2021/11/03 02:56:10;;;;;;;24.30;16.03;;;;;;;9.77;91.08;99549.22;5059688;28;20249;-69
2021/11/03 02:58:36;;;;;;;23.67;14.93;;;;;;;9.92;90.98;99554.31;5075826;28;20170;-70
2021/11/03 03:01:29;;;;;;;20.37;15.57;;;;;;;9.98;91.51;99555.69;5078071;28;20189;-70
2021/11/03 03:03:55;;;;;;;22.53;15.80;;;;;;;9.91;90.95;99557.94;5090185;28;20185;-70
2021/11/03 03:06:23;;;;;;;24.73;16.27;;;;;;;9.94;91.72;99567.53;5098360;28;20189;-70
2021/11/03 03:08:50;;;;;;;23.93;17.13;;;;;;;9.82;91.89;99571.06;5098444;28;20170;-70
2021/11/03 03:11:16;;;;;;;28.33;17.23;;;;;;;9.61;93.12;99571.56;5079400;28;20168;-69
2021/11/03 03:13:41;;;;;;;22.77;16.37;;;;;;;10.27;90.25;99572.31;5062582;28;20225;-69
2021/11/03 03:16:07;;;;;;;25.27;17.67;;;;;;;10.21;89.97;99560.28;5097390;28;20184;-69
2021/11/03 03:18:32;;;;;;;21.70;15.10;;;;;;;9.95;91.29;99563.91;5084817;28;20633;-69
2021/11/03 03:20:58;;;;;;;20.70;15.40;;;;;;;10.03;90.28;99564.22;5085933;28;20185;-70
2021/11/03 03:23:23;;;;;;;19.07;14.00;;;;;;;10.42;89.30;99567.72;5103844;28;20245;-69
2021/11/03 03:25:50;;;;;;;20.47;14.47;;;;;;;10.11;89.41;99561.03;5083156;28;20669;-69
2021/11/03 03:28:17;;;;;;;19.50;14.10;;;;;;;10.17;90.01;99561.44;5080710;28;20235;-70
2021/11/03 03:30:43;;;;;;;20.40;14.27;;;;;;;10.22;90.31;99561.13;5100846;28;20177;-69
2021/11/03 03:33:08;;;;;;;19.27;14.23;;;;;;;9.93;89.30;99550.69;5098621;28;20658;-71
2021/11/03 03:35:33;;;;;;;19.13;13.80;;;;;;;10.36;89.16;99568.13;5080444;28;20540;-70
2021/11/03 03:37:58;;;;;;;22.17;13.97;;;;;;;10.23;90.11;99562.84;5079781;28;20206;-69
2021/11/03 03:40:24;;;;;;;18.87;13.73;;;;;;;10.55;87.89;99569.38;5079699;28;20180;-69
2021/11/03 03:42:49;;;;;;;17.40;13.13;;;;;;;10.62;87.00;99564.44;5097210;28;20174;-67
2021/11/03 03:45:14;;;;;;;19.33;13.13;;;;;;;10.59;87.98;99556.66;5079361;28;20176;-69
2021/11/03 03:47:40;;;;;;;18.40;13.53;;;;;;;10.83;87.40;99565.56;5078779;28;20702;-69
2021/11/03 03:50:06;;;;;;;16.33;12.30;;;;;;;10.98;86.86;99560.03;5078962;28;20181;-69
2021/11/03 03:52:31;;;;;;;16.00;12.00;;;;;;;10.98;86.53;99565.38;5097073;28;20189;-70
2021/11/03 03:54:57;;;;;;;17.63;12.77;;;;;;;10.90;87.45;99569.47;5096811;28;20181;-69
2021/11/03 03:57:22;;;;;;;16.33;12.30;;;;;;;10.82;87.79;99581.69;5097004;28;20201;-70
2021/11/03 03:59:47;;;;;;;16.43;12.73;;;;;;;10.94;87.22;99583.44;5096645;28;20177;-70
2021/11/03 04:02:12;;;;;;;17.67;12.63;;;;;;;11.03;87.42;99589.91;5061565;28;20210;-70
2021/11/03 04:04:38;;;;;;;17.80;12.30;;;;;;;10.65;88.38;99583.75;5078975;28;20188;-70
2021/11/03 04:07:03;;;;;;;18.60;13.17;;;;;;;10.77;88.35;99582.00;5078697;28;20720;-69
2021/11/03 04:09:29;;;;;;;21.43;13.53;;;;;;;10.46;88.88;99574.53;5096857;28;20185;-70
2021/11/03 04:11:54;;;;;;;22.43;14.60;;;;;;;10.79;88.28;99585.44;5097624;28;20174;-69
2021/11/03 04:14:19;;;;;;;19.83;14.40;;;;;;;10.74;87.46;99589.38;5100710;28;20194;-71
2021/11/03 04:16:45;;;;;;;23.60;14.57;;;;;;;10.22;88.71;99578.00;5082205;28;20197;-69
2021/11/03 04:19:10;;;;;;;20.50;14.50;;;;;;;10.40;90.52;99589.13;5079632;28;20201;-70
2021/11/03 04:21:35;;;;;;;22.80;15.13;;;;;;;10.02;91.46;99587.34;5096461;28;20224;-69
2021/11/03 04:24:01;;;;;;;21.27;14.37;;;;;;;10.55;89.09;99595.22;5077903;28;20166;-70
2021/11/03 04:26:33;;;;;;;21.70;15.17;;;;;;;10.64;89.32;99598.06;5078170;28;20204;-70
2021/11/03 04:28:58;;;;;;;19.70;14.37;;;;;;;10.61;90.50;99600.94;5077745;28;20354;-70
2021/11/03 04:31:24;;;;;;;24.73;15.50;;;;;;;10.87;88.64;99600.88;5077675;28;20529;-70
2021/11/03 04:33:53;;;;;;;29.00;17.73;;;;;;;10.37;90.59;99604.50;5060888;28;20190;-70
2021/11/03 04:36:22;;;;;;;25.97;15.93;;;;;;;10.70;89.89;99599.41;5095803;28;20282;-70
2021/11/03 04:38:49;;;;;;;26.00;18.07;;;;;;;10.83;88.91;99605.59;5077720;28;20172;-69
2021/11/03 04:41:15;;;;;;;26.70;17.30;;;;;;;10.90;87.72;99609.50;5077989;28;20263;-70
2021/11/03 04:43:41;;;;;;;26.60;17.03;;;;;;;10.62;88.54;99593.78;5078028;28;20200;-70
2021/11/03 04:46:06;;;;;;;24.37;17.00;;;;;;;10.78;88.91;99612.19;5077905;28;20182;-70
2021/11/03 04:48:31;;;;;;;29.00;17.57;;;;;;;10.63;88.31;99607.03;5094376;22;20655;-76
2021/11/03 04:50:57;;;;;;;24.67;16.43;;;;;;;10.75;88.40;99617.75;5074981;28;20228;-77
2021/11/03 04:53:24;;;;;;;23.97;17.27;;;;;;;10.81;88.55;99626.19;5075379;28;20585;-77
2021/11/03 04:55:51;;;;;;;24.80;16.40;;;;;;;10.78;88.55;99621.09;5075237;28;20171;-77
2021/11/03 04:58:16;;;;;;;23.33;16.57;;;;;;;10.75;89.24;99626.63;5057012;28;20201;-76
2021/11/03 05:00:45;;;;;;;28.87;17.67;;;;;;;10.56;89.76;99628.94;5057065;28;20179;-77
2021/11/03 05:03:11;;;;;;;26.03;16.93;;;;;;;10.63;89.83;99632.84;5057538;28;20221;-77
2021/11/03 05:05:37;;;;;;;26.67;17.37;;;;;;;10.48;89.04;99623.28;5040895;28;20185;-76
2021/11/03 05:08:02;;;;;;;23.17;17.07;;;;;;;10.31;89.48;99625.34;5075395;28;20197;-76
2021/11/03 05:10:28;;;;;;;25.17;17.10;;;;;;;10.55;89.31;99633.41;5057788;28;20584;-76
2021/11/03 05:12:53;;;;;;;31.40;16.57;;;;;;;10.15;90.22;99630.03;5078732;28;20210;-78
2021/11/03 05:15:18;;;;;;;55.00;18.13;;;;;;;10.11;91.06;99638.34;5077626;28;20171;-76
2021/11/03 05:17:44;;;;;;;43.07;18.23;;;;;;;9.81;92.08;99635.97;5076613;28;20191;-78
2021/11/03 05:20:09;;;;;;;35.90;17.67;;;;;;;9.88;91.21;99635.44;5081419;28;20179;-80
2021/11/03 05:22:35;;;;;;;32.10;18.23;;;;;;;9.72;92.95;99645.47;5065382;28;20183;-78
2021/11/03 05:25:00;;;;;;;101.83;19.23;;;;;;;9.42;94.30;99644.84;5045598;28;20206;-76
2021/11/03 05:27:26;;;;;;;109.17;20.07;;;;;;;9.20;95.99;99654.25;5074126;28;20195;-77
2021/11/03 05:29:52;;;;;;;91.20;18.57;;;;;;;9.47;95.44;99656.91;5056655;28;20209;-76
2021/11/03 05:32:17;;;;;;;55.77;17.67;;;;;;;9.65;93.23;99650.31;5056333;28;20290;-76
2021/11/03 05:34:42;;;;;;;60.57;17.53;;;;;;;9.77;92.62;99642.47;5056715;28;20171;-76
2021/11/03 05:37:11;;;;;;;37.60;16.23;;;;;;;9.96;91.49;99650.91;5055977;28;20198;-76
2021/11/03 05:39:37;;;;;;;27.10;16.00;;;;;;;9.99;90.60;99637.34;5040332;28;20171;-77
2021/11/03 05:42:02;;;;;;;51.37;15.93;;;;;;;9.79;90.00;99633.41;5074443;28;20225;-76
2021/11/03 05:44:27;;;;;;;30.57;15.73;;;;;;;9.57;90.53;99636.69;5074215;28;20174;-76
2021/11/03 05:46:55;;;;;;;230.30;21.73;;;;;;;9.47;91.63;99640.94;5074318;28;20193;-76
2021/11/03 05:49:27;;;;;;;108.47;18.07;;;;;;;9.50;92.55;99639.88;5055969;28;20189;-76
2021/11/03 05:51:54;;;;;;;34.47;17.70;;;;;;;9.68;92.48;99657.28;5057024;28;20166;-76
2021/11/03 05:54:20;;;;;;;73.27;18.33;;;;;;;9.64;90.94;99650.44;5073607;28;20566;-75
2021/11/03 05:56:46;;;;;;;150.73;21.50;;;;;;;9.25;93.65;99656.63;5056290;28;20175;-78
2021/11/03 05:59:12;;;;;;;190.23;20.23;;;;;;;8.89;94.83;99649.22;5056748;28;20546;-76
2021/11/03 06:01:37;;;;;;;135.13;18.37;;;;;;;8.91;94.21;99660.63;5056009;28;20198;-77
2021/11/03 06:04:03;;;;;;;116.23;18.90;;;;;;;9.15;94.40;99664.34;5073792;28;20178;-77
2021/11/03 06:06:28;;;;;;;47.73;15.97;;;;;;;9.44;93.13;99649.13;5039549;28;20253;-76
2021/11/03 06:08:54;;;;;;;80.73;17.97;;;;;;;9.70;91.35;99650.03;5074110;28;20650;-77
2021/11/03 06:11:21;;;;;;;164.57;20.27;;;;;;;9.11;93.34;99646.03;5039779;28;20171;-77
2021/11/03 06:13:47;;;;;;;47.77;15.87;;;;;;;9.09;93.12;99649.66;5056343;28;20195;-76
2021/11/03 06:16:12;;;;;;;194.83;18.70;;;;;;;9.02;93.34;99648.34;5055705;28;20179;-76
2021/11/03 06:18:37;;;;;;;111.73;17.03;;;;;;;9.08;94.28;99655.06;5039871;28;20222;-77
2021/11/03 06:21:03;;;;;;;57.37;15.87;;;;;;;9.45;91.30;99649.97;5056134;28;20643;-77
2021/11/03 06:23:29;;;;;;;306.60;22.67;;;;;;;9.12;91.88;99642.41;5055518;28;20630;-69
2021/11/03 06:25:54;;;;;;;24.27;13.93;;;;;;;9.36;91.97;99648.78;5073269;28;20190;-67
2021/11/03 06:28:20;;;;;;;398.50;23.43;;;;;;;8.81;92.91;99644.41;5073202;28;20195;-68
2021/11/03 06:30:45;;;;;;;205.90;16.83;;;;;;;8.98;91.39;99644.19;5055326;28;20567;-69
2021/11/03 06:33:11;;;;;;;184.37;16.47;;;;;;;9.01;92.88;99649.28;5073104;28;20203;-68
2021/11/03 06:35:37;;;;;;;307.80;20.87;;;;;;;9.09;92.50;99649.66;5055395;28;20630;-68
2021/11/03 06:38:04;;;;;;;83.77;12.63;;;;;;;8.33;93.88;99649.22;5055392;28;20194;-66
2021/11/03 06:40:30;;;;;;;333.30;18.13;;;;;;;8.12;96.14;99661.13;5073857;28;20175;-73
2021/11/03 06:42:55;;;;;;;199.50;15.97;;;;;;;8.26;95.13;99663.81;5073925;28;20187;-73
2021/11/03 06:45:22;;;;;;;242.43;16.87;;;;;;;8.30;94.28;99665.34;5056201;28;20194;-74
2021/11/03 06:47:49;;;;;;;44.77;12.97;;;;;;;8.91;92.80;99674.78;5056122;28;20209;-74
2021/11/03 06:50:17;;;;;;;80.20;13.97;;;;;;;9.01;92.49;99675.91;5057043;28;20186;-75
2021/11/03 06:52:44;;;;;;;94.13;13.43;;;;;;;8.84;92.24;99669.94;5056890;28;20219;-75
2021/11/03 06:55:10;;;;;;;79.27;12.17;;;;;;;9.05;90.84;99676.56;5056041;28;20174;-75
2021/11/03 06:57:35;;;;;;;94.67;15.83;;;;;;;8.94;91.12;99679.94;5041205;28;20248;-73
2021/11/03 07:00:05;;;;;;;39.43;13.20;;;;;;;9.26;91.05;99690.25;5055207;28;20171;-75
2021/11/03 07:02:30;;;;;;;113.83;15.43;;;;;;;9.11;90.88;99689.47;5039736;28;20167;-74
2021/11/03 07:04:55;;;;;;;55.77;12.83;;;;;;;9.26;90.22;99695.59;5056871;28;20181;-74
2021/11/03 07:07:20;;;;;;;;;;;;;;;9.16;90.42;99697.16;5073943;28;20207;-74
2021/11/03 07:09:46;;;;;;;38.47;12.57;;;;;;;9.06;90.20;99689.78;5055832;28;20319;-74
2021/11/03 07:12:11;;;;;;;26.67;12.60;;;;;;;9.33;90.37;99696.94;5073522;28;20589;-76
2021/11/03 07:14:36;;;;;;;166.50;16.03;;;;;;;9.02;91.15;99688.25;5073394;28;20232;-73
2021/11/03 07:17:02;;;;;;;20.10;13.57;;;;;;;9.42;91.21;99703.44;5055454;28;20252;-74
2021/11/03 07:19:27;;;;;;;124.53;16.47;;;;;;;8.85;91.79;99690.28;5039373;28;20191;-74
2021/11/03 07:21:52;;;;;;;55.27;14.17;;;;;;;8.72;93.63;99701.72;5073495;28;20265;-75
2021/11/03 07:24:18;;;;;;;28.30;13.83;;;;;;;9.02;92.65;99709.56;5074682;28;20511;-75
2021/11/03 07:26:44;;;;;;;19.67;13.10;;;;;;;9.11;92.35;99715.22;5074032;28;20178;-74
2021/11/03 07:29:10;;;;;;;41.03;13.63;;;;;;;9.30;89.74;99713.09;5076712;28;20192;-76
2021/11/03 07:31:36;;;;;;;17.73;12.43;;;;;;;9.25;88.97;99708.06;5058662;28;20186;-75
2021/11/03 07:34:01;;;;;;;18.73;12.90;;;;;;;9.37;88.50;99714.41;5073490;28;20230;-75
2021/11/03 07:36:27;;;;;;;20.73;13.17;;;;;;;9.54;89.20;99722.13;5056183;28;20688;-75
2021/11/03 07:38:52;;;;;;;35.27;12.33;;;;;;;9.14;90.35;99720.34;5055210;28;20560;-74
2021/11/03 07:41:17;;;;;;;45.57;14.77;;;;;;;8.98;91.09;99718.69;5074062;28;20175;-74
2021/11/03 07:43:44;;;;;;;30.30;14.23;;;;;;;9.37;90.44;99727.72;5073071;28;20543;-73
2021/11/03 07:46:10;;;;;;;18.73;13.07;;;;;;;9.65;90.36;99748.91;5074165;28;20210;-74
2021/11/03 07:48:36;;;;;;;19.50;13.77;;;;;;;9.78;88.81;99748.09;5058635;28;20242;-74
2021/11/03 07:51:05;;;;;;;21.17;13.40;;;;;;;9.65;90.83;99758.69;5058672;28;20221;-74
2021/11/03 07:53:30;;;;;;;21.70;13.17;;;;;;;9.02;90.58;99746.81;5076533;28;20222;-74
2021/11/03 07:56:00;;;;;;;17.20;13.13;;;;;;;9.82;89.64;99770.94;5076541;28;20190;-74
2021/11/03 07:58:29;;;;;;;17.57;12.37;;;;;;;9.73;88.74;99763.56;5076798;28;20191;-74
2021/11/03 08:00:55;;;;;;;19.03;12.43;;;;;;;10.08;86.48;99772.72;5077185;28;20211;-74
2021/11/03 08:03:20;;;;;;;18.60;12.43;;;;;;;9.53;87.67;99764.84;5076619;28;20267;-74
2021/11/03 08:05:49;;;;;;;21.90;12.43;;;;;;;9.15;89.89;99769.97;5059505;28;20259;-73
2021/11/03 08:08:15;;;;;;;16.80;11.97;;;;;;;9.20;91.01;99775.88;5062044;28;20190;-74
2021/11/03 08:10:45;;;;;;;20.03;12.83;;;;;;;8.89;92.89;99777.78;5059028;28;20178;-74
2021/11/03 08:13:17;;;;;;;18.73;12.57;;;;;;;9.12;91.36;99767.53;5059143;28;20194;-74
2021/11/03 08:15:44;;;;;;;20.03;14.30;;;;;;;10.07;88.37;99775.47;5076583;28;20151;-74
2021/11/03 08:18:11;;;;;;;21.43;13.33;;;;;;;10.00;87.82;99772.34;5058540;28;20236;-75
2021/11/03 08:20:37;;;;;;;16.50;11.67;;;;;;;10.28;87.91;99774.03;5058501;28;20211;-75
2021/11/03 08:23:03;;;;;;;18.60;12.87;;;;;;;10.33;86.50;99766.56;5075961;28;20190;-74
2021/11/03 08:25:29;;;;;;;16.80;12.03;;;;;;;10.48;85.27;99772.69;5058499;28;20262;-75
2021/11/03 08:27:54;;;;;;;16.23;12.13;;;;;;;10.52;84.96;99768.84;5058226;28;20284;-74
2021/11/03 08:30:20;;;;;;;16.10;11.87;;;;;;;10.83;83.74;99771.06;5058353;28;20181;-73
2021/11/03 08:32:51;;;;;;;14.93;11.47;;;;;;;10.81;81.86;99764.13;5058160;28;20204;-73
2021/11/03 08:35:18;;;;;;;16.17;11.83;;;;;;;10.70;82.37;99767.53;5058215;28;20154;-75
2021/11/03 08:37:44;;;;;;;18.13;12.10;;;;;;;10.68;83.55;99766.78;5057851;28;20194;-74
2021/11/03 08:40:14;;;;;;;18.20;11.93;;;;;;;10.55;83.93;99757.97;5058249;28;20182;-74
2021/11/03 08:42:40;;;;;;;14.83;10.77;;;;;;;10.57;83.41;99764.03;5041778;28;20176;-74
2021/11/03 08:45:06;;;;;;;15.67;11.77;;;;;;;10.95;81.90;99756.00;5042095;28;20668;-74
2021/11/03 08:47:33;;;;;;;13.90;10.53;;;;;;;11.18;81.04;99759.69;5041759;28;20292;-74
2021/11/03 08:49:58;;;;;;;15.03;11.27;;;;;;;11.47;80.54;99763.75;5041890;28;20174;-74
2021/11/03 08:52:23;;;;;;;14.37;11.17;;;;;;;10.96;82.32;99763.03;5058479;28;20251;-74
2021/11/03 08:54:49;;;;;;;13.43;10.63;;;;;;;10.82;82.27;99764.03;5058646;28;20169;-74
2021/11/03 08:57:16;;;;;;;15.33;11.63;;;;;;;10.90;82.85;99780.34;5075703;28;20193;-75
2021/11/03 08:59:42;;;;;;;15.87;12.70;;;;;;;10.62;83.13;99772.56;5057647;28;20185;-74
2021/11/03 09:02:08;;;;;;;17.27;12.80;;;;;;;10.95;83.31;99786.22;5075556;28;20208;-73
2021/11/03 09:04:34;;;;;;;16.37;12.40;;;;;;;10.37;85.33;99784.06;5040532;28;20231;-74
2021/11/03 09:06:59;;;;;;;17.80;12.17;;;;;;;10.31;84.60;99769.34;5057387;28;20174;-74
2021/11/03 09:09:25;;;;;;;16.73;12.53;;;;;;;10.14;85.56;99772.28;5074952;28;20599;-74
2021/11/03 09:11:51;;;;;;;17.40;12.77;;;;;;;10.62;85.09;99775.25;5075117;28;20170;-73
2021/11/03 09:14:20;;;;;;;18.17;11.97;;;;;;;10.82;85.16;99789.88;5075445;28;20190;-74
2021/11/03 09:16:45;;;;;;;18.13;13.30;;;;;;;10.32;84.65;99764.88;5057308;28;20180;-74
2021/11/03 09:19:11;;;;;;;19.37;12.27;;;;;;;10.48;84.85;99780.69;5057211;28;20554;-74
2021/11/03 09:21:36;;;;;;;18.20;12.60;;;;;;;10.84;84.16;99788.78;5057337;28;20167;-74
2021/11/03 09:24:02;;;;;;;17.73;12.93;;;;;;;11.10;83.57;99786.06;5075006;28;20170;-74
2021/11/03 09:26:27;;;;;;;20.57;13.97;;;;;;;11.25;82.08;99782.31;5075155;28;20170;-74
2021/11/03 09:28:54;;;;;;;18.43;13.07;;;;;;;11.58;82.01;99790.56;5074788;28;20239;-74
2021/11/03 09:31:19;;;;;;;16.20;12.60;;;;;;;11.04;82.48;99767.81;5074911;28;20261;-73
2021/11/03 09:33:45;;;;;;;19.00;13.20;;;;;;;11.27;82.43;99772.38;5075730;28;20360;-75
2021/11/03 09:36:14;;;;;;;17.13;11.80;;;;;;;11.77;80.72;99779.34;5057783;28;20178;-76
2021/11/03 09:38:40;;;;;;;18.90;13.50;;;;;;;11.37;80.83;99764.53;5075244;28;20187;-75
2021/11/03 09:41:21;;;;;;;16.27;11.60;;;;;;;11.24;82.11;99775.28;5074822;28;20260;-74
2021/11/03 09:43:51;;;;;;;16.20;12.73;;;;;;;11.35;82.18;99778.00;5057060;28;20151;-75
2021/11/03 09:46:42;;;;;;;20.20;13.10;;;;;;;11.20;81.42;99763.97;5057582;28;20609;-75
2021/11/03 09:49:18;;;;;;;19.00;13.77;;;;;;;11.73;80.85;99780.53;5040106;28;20199;-74
2021/11/03 09:51:46;;;;;;;18.67;14.00;;;;;;;11.04;82.40;99767.81;5039754;28;20258;-74
2021/11/03 09:54:22;;;;;;;16.90;12.60;;;;;;;11.19;83.57;99782.78;5056583;28;20713;-75
2021/11/03 09:56:54;;;;;;;19.53;13.73;;;;;;;11.47;81.64;99787.78;5043528;28;20161;-73
2021/11/03 09:59:24;;;;;;;17.50;13.03;;;;;;;11.27;80.93;99781.25;5062272;28;20288;-74
2021/11/03 10:02:03;;;;;;;18.87;14.30;;;;;;;12.05;79.42;99799.56;5060336;28;20177;-75
2021/11/03 10:04:40;;;;;;;19.67;13.90;;;;;;;11.74;78.98;99782.25;5058980;28;20158;-73
2021/11/03 10:07:37;;;;;;;21.97;14.77;;;;;;;11.87;79.60;99784.88;5077196;28;20182;-75
2021/11/03 10:10:15;;;;;;;20.27;14.57;;;;;;;11.72;80.44;99791.34;5076177;28;20251;-75
2021/11/03 10:12:40;;;;;;;21.97;14.13;;;;;;;11.71;80.20;99789.66;5058355;28;20277;-74
2021/11/03 10:15:06;;;;;;;19.00;13.87;;;;;;;12.15;78.17;99789.88;5057419;28;20179;-74
2021/11/03 10:17:31;;;;;;;22.57;14.43;;;;;;;11.95;79.08;99787.00;5075759;28;20256;-75
2021/11/03 10:19:57;;;;;;;20.03;15.20;;;;;;;12.30;77.91;99787.88;5057067;28;20171;-75
2021/11/03 10:22:31;;;;;;;22.57;14.73;;;;;;;11.96;79.30;99794.91;5057445;28;20174;-74
2021/11/03 10:25:05;;;;;;;20.20;13.83;;;;;;;12.36;78.00;99794.56;5076048;28;20620;-75
2021/11/03 10:27:31;;;;;;;18.70;14.10;;;;;;;12.14;78.86;99790.84;5083860;28;20186;-75
2021/11/03 10:30:20;;;;;;;16.97;12.40;;;;;;;13.12;75.60;99793.94;5080419;28;20178;-74
2021/11/03 10:32:45;;;;;;;18.03;13.93;;;;;;;12.50;76.14;99776.47;5079423;28;20205;-76
2021/11/03 10:35:37;;;;;;;18.70;14.57;;;;;;;11.71;78.48;99774.47;5079265;28;20167;-75
2021/11/03 10:38:16;;;;;;;18.50;13.53;;;;;;;12.02;78.84;99790.91;5077162;28;20191;-75
2021/11/03 10:40:47;;;;;;;18.27;12.73;;;;;;;12.51;77.81;99782.66;5079921;28;20162;-74
2021/11/03 10:43:42;;;;;;;18.43;14.23;;;;;;;12.61;76.67;99780.97;5095146;28;20131;-74
2021/11/03 10:46:30;;;;;;;17.00;12.77;;;;;;;12.69;76.61;99788.44;5086851;28;20254;-75
2021/11/03 10:49:16;;;;;;;18.27;13.30;;;;;;;13.43;74.98;99795.03;5086708;22;20594;-69
2021/11/03 10:51:44;;;;;;;14.73;12.23;;;;;;;13.61;72.63;99777.44;5054997;28;20257;-68
2021/11/03 10:54:20;;;;;;;16.07;12.10;;;;;;;13.88;72.48;99779.69;5073034;28;20201;-68
2021/11/03 10:57:00;;;;;;;15.93;12.67;;;;;;;13.09;73.88;99770.06;5055449;28;20159;-68
2021/11/03 10:59:30;;;;;;;16.50;12.73;;;;;;;13.47;72.30;99768.84;5035062;28;20206;-69
2021/11/03 11:02:18;;;;;;;16.17;12.67;;;;;;;12.97;73.73;99763.00;5035236;28;20647;-68
2021/11/03 11:04:43;;;;;;;15.00;12.23;;;;;;;13.38;72.40;99771.28;5035397;28;20205;-69
2021/11/03 11:07:25;;;;;;;13.57;11.33;;;;;;;13.78;70.87;99778.75;5052753;28;20175;-68
2021/11/03 11:10:18;;;;;;;17.50;11.83;;;;;;;14.27;69.94;99775.47;5034821;28;20616;-69
2021/11/03 11:12:45;;;;;;;16.93;11.70;;;;;;;15.32;66.81;99777.06;5051704;28;20598;-68
2021/11/03 11:15:13;;;;;;;15.63;9.93;;;;;;;14.89;66.70;99765.72;5035061;28;20543;-69
2021/11/03 11:17:49;;;;;;;11.03;8.97;;;;;;;15.84;64.40;99777.75;5051333;28;20219;-68
2021/11/03 11:20:33;;;;;;;11.97;9.63;;;;;;;17.72;60.09;99784.09;5034807;28;20171;-68
2021/11/03 11:23:08;;;;;;;12.03;9.57;;;;;;;17.93;57.98;99746.03;5056235;28;20206;-70